createdAt,value
2023-01-03T00:01:52.804Z,8.46
2023-01-03T00:04:21.220Z,8.47
2023-01-03T00:06:53.339Z,8.45
2023-01-03T00:09:23.421Z,8.36
2023-01-03T00:12:10.910Z,8.35
2023-01-03T00:14:41.823Z,8.42
2023-01-03T00:17:10.725Z,8.47
2023-01-03T00:19:41.687Z,8.61
2023-01-03T00:22:10.064Z,8.50
2023-01-03T00:24:38.101Z,8.41
2023-01-03T00:27:05.574Z,8.37
2023-01-03T00:29:33.428Z,8.38
2023-01-03T00:32:01.191Z,8.35
2023-01-03T00:34:28.821Z,8.34
2023-01-03T00:36:56.942Z,8.46
2023-01-03T00:39:25.376Z,8.46
2023-01-03T00:41:53.466Z,8.47
2023-01-03T00:44:20.976Z,8.40
2023-01-03T00:46:48.763Z,8.36
2023-01-03T00:49:16.564Z,8.32
2023-01-03T00:51:44.695Z,8.31
2023-01-03T00:54:13.597Z,8.36
2023-01-03T00:56:43.615Z,8.40
2023-01-03T00:59:12.067Z,8.32
2023-01-03T01:01:46.583Z,8.28
2023-01-03T01:04:27.305Z,8.29
2023-01-03T01:07:00.882Z,8.30
2023-01-03T01:09:31.618Z,8.38
2023-01-03T01:11:59.799Z,8.36
2023-01-03T01:14:29.099Z,8.25
2023-01-03T01:17:01.377Z,8.33
2023-01-03T01:19:34.808Z,8.33
2023-01-03T01:22:02.706Z,8.37
2023-01-03T01:24:30.271Z,8.43
2023-01-03T01:26:57.928Z,8.49
2023-01-03T01:29:25.476Z,8.42
2023-01-03T01:31:52.993Z,8.41
2023-01-03T01:34:20.647Z,8.47
2023-01-03T01:36:48.292Z,8.43
2023-01-03T01:39:19.300Z,8.29
2023-01-03T01:42:07.496Z,8.37
2023-01-03T01:44:52.510Z,8.33
2023-01-03T01:47:53.993Z,8.19
2023-01-03T01:50:40.366Z,8.27
2023-01-03T01:53:11.200Z,8.26
2023-01-03T01:55:40.788Z,8.27
2023-01-03T01:58:09.529Z,8.28
2023-01-03T02:00:38.400Z,8.16
2023-01-03T02:03:06.043Z,8.30
2023-01-03T02:05:37.166Z,8.31
2023-01-03T02:08:05.291Z,8.24
2023-01-03T02:11:05.827Z,8.18
2023-01-03T02:13:37.984Z,8.33
2023-01-03T02:16:16.907Z,8.28
2023-01-03T02:19:22.602Z,8.35
2023-01-03T02:22:04.684Z,8.35
2023-01-03T02:24:54.591Z,8.44
2023-01-03T02:27:50.293Z,8.51
2023-01-03T02:30:27.787Z,8.46
2023-01-03T02:33:34.243Z,8.36
2023-01-03T02:36:07.591Z,8.38
2023-01-03T02:38:49.592Z,8.39
2023-01-03T02:41:38.528Z,8.38
2023-01-03T02:44:41.640Z,8.33
2023-01-03T02:47:15.437Z,8.30
2023-01-03T02:49:50.596Z,8.20
2023-01-03T02:52:22.916Z,8.21
2023-01-03T02:55:02.886Z,8.17
2023-01-03T02:57:38.248Z,8.18
2023-01-03T03:00:15.209Z,8.16
2023-01-03T03:02:50.161Z,8.20
2023-01-03T03:05:28.403Z,8.23
2023-01-03T03:07:55.942Z,8.18
2023-01-03T03:10:42.249Z,8.15
2023-01-03T03:13:41.158Z,8.11
2023-01-03T03:16:40.591Z,8.13
2023-01-03T03:19:49.890Z,8.17
2023-01-03T03:23:03.673Z,8.26
2023-01-03T03:25:43.398Z,8.25
2023-01-03T03:28:34.482Z,8.16
2023-01-03T03:31:27.676Z,8.34
2023-01-03T03:34:21.302Z,8.23
2023-01-03T03:37:19.981Z,8.42
2023-01-03T03:40:06.810Z,8.25
2023-01-03T03:43:05.607Z,8.24
2023-01-03T03:45:49.342Z,8.26
2023-01-03T03:48:53.859Z,8.38
2023-01-03T03:51:24.267Z,8.29
2023-01-03T03:53:53.707Z,8.28
2023-01-03T03:56:28.482Z,8.15
2023-01-03T03:59:00.994Z,8.11
2023-01-03T04:01:30.273Z,8.10
2023-01-03T04:04:02.400Z,8.13
2023-01-03T04:06:36.208Z,8.22
2023-01-03T04:09:04.315Z,8.25
2023-01-03T04:11:31.762Z,8.24
2023-01-03T04:13:59.266Z,8.20
2023-01-03T04:16:26.627Z,8.25
2023-01-03T04:18:54.161Z,8.17
2023-01-03T04:21:21.591Z,8.22
2023-01-03T04:23:49.072Z,8.16
2023-01-03T04:26:16.785Z,8.07
2023-01-03T04:28:44.338Z,8.10
2023-01-03T04:31:11.869Z,8.17
2023-01-03T04:33:39.400Z,8.23
2023-01-03T04:36:06.863Z,8.23
2023-01-03T04:38:34.321Z,8.26
2023-01-03T04:41:08.511Z,8.32
2023-01-03T04:43:54.929Z,8.29
2023-01-03T04:46:23.243Z,8.26
2023-01-03T04:48:50.677Z,8.32
2023-01-03T04:51:18.287Z,8.25
2023-01-03T04:53:45.700Z,8.25
2023-01-03T04:56:13.203Z,8.17
2023-01-03T04:58:40.680Z,8.32
2023-01-03T05:01:08.503Z,8.38
2023-01-03T05:03:38.081Z,8.36
2023-01-03T05:06:08.329Z,8.24
2023-01-03T05:08:36.202Z,8.18
2023-01-03T05:11:03.766Z,8.27
2023-01-03T05:13:31.443Z,8.39
2023-01-03T05:16:06.148Z,8.33
2023-01-03T05:18:34.093Z,8.36
2023-01-03T05:21:33.839Z,8.38
2023-01-03T05:24:20.135Z,8.31
2023-01-03T05:26:48.166Z,8.27
2023-01-03T05:29:19.576Z,8.27
2023-01-03T05:31:47.299Z,8.30
2023-01-03T05:34:15.131Z,8.36
2023-01-03T05:36:42.722Z,8.36
2023-01-03T05:39:10.317Z,8.31
2023-01-03T05:41:56.129Z,8.17
2023-01-03T05:44:23.739Z,8.13
2023-01-03T05:46:51.243Z,8.25
2023-01-03T05:49:18.777Z,8.24
2023-01-03T05:51:46.151Z,8.13
2023-01-03T05:54:18.357Z,8.20
2023-01-03T05:56:46.437Z,8.07
2023-01-03T05:59:13.913Z,8.02
2023-01-03T06:01:41.575Z,8.16
2023-01-03T06:04:09.338Z,8.12
2023-01-03T06:06:36.915Z,8.18
2023-01-03T06:09:04.184Z,8.08
2023-01-03T06:11:31.616Z,8.14
2023-01-03T06:13:58.831Z,8.22
2023-01-03T06:16:44.578Z,8.15
2023-01-03T06:19:12.473Z,8.22
2023-01-03T06:21:41.670Z,8.13
2023-01-03T06:24:09.780Z,8.14
2023-01-03T06:26:37.675Z,8.11
2023-01-03T06:29:05.961Z,8.22
2023-01-03T06:31:34.089Z,8.03
2023-01-03T06:34:02.841Z,7.99
2023-01-03T06:36:32.288Z,8.19
2023-01-03T06:38:59.850Z,8.12
2023-01-03T06:41:27.050Z,8.08
2023-01-03T06:43:55.112Z,8.09
2023-01-03T06:46:41.560Z,8.03
2023-01-03T06:49:34.468Z,8.09
2023-01-03T06:52:22.823Z,8.05
2023-01-03T06:54:50.960Z,8.09
2023-01-03T06:57:26.235Z,8.11
2023-01-03T06:59:55.651Z,7.98
2023-01-03T07:02:23.452Z,7.96
2023-01-03T07:04:51.243Z,8.03
2023-01-03T07:07:18.840Z,7.98
2023-01-03T07:09:46.357Z,8.09
2023-01-03T07:12:32.546Z,8.04
2023-01-03T07:15:00.226Z,8.01
2023-01-03T07:17:27.806Z,8.13
2023-01-03T07:19:55.290Z,8.16
2023-01-03T07:22:22.790Z,8.15
2023-01-03T07:24:50.157Z,8.19
2023-01-03T07:27:17.371Z,8.14
2023-01-03T07:29:44.793Z,8.19
2023-01-03T07:32:12.237Z,8.18
2023-01-03T07:34:39.561Z,8.23
2023-01-03T07:37:06.687Z,8.21
2023-01-03T07:39:34.104Z,8.14
2023-01-03T07:42:19.770Z,8.15
2023-01-03T07:44:47.110Z,8.20
2023-01-03T07:47:14.705Z,8.18
2023-01-03T07:49:42.114Z,8.20
2023-01-03T07:52:09.643Z,8.21
2023-01-03T07:54:37.286Z,8.29
2023-01-03T07:57:04.693Z,8.31
2023-01-03T07:59:32.135Z,8.38
2023-01-03T08:01:59.684Z,8.44
2023-01-03T08:04:27.293Z,8.41
2023-01-03T08:06:54.934Z,8.45
2023-01-03T08:09:41.211Z,8.49
2023-01-03T08:12:28.792Z,8.56
2023-01-03T08:14:56.258Z,8.61
2023-01-03T08:17:23.481Z,8.73
2023-01-03T08:19:50.803Z,8.85
2023-01-03T08:22:18.111Z,8.95
2023-01-03T08:24:45.755Z,9.18
2023-01-03T08:27:13.339Z,9.34
2023-01-03T08:29:41.125Z,9.49
2023-01-03T08:32:08.705Z,9.70
2023-01-03T08:34:41.904Z,10.01
2023-01-03T08:37:11.391Z,10.12
2023-01-03T08:39:49.006Z,10.38
2023-01-03T08:42:21.148Z,10.46
2023-01-03T08:44:49.895Z,10.47
2023-01-03T08:47:18.061Z,10.54
2023-01-03T08:49:45.702Z,10.66
2023-01-03T08:52:13.226Z,10.67
2023-01-03T08:54:41.015Z,10.74
2023-01-03T08:57:08.618Z,10.86
2023-01-03T08:59:36.424Z,11.10
2023-01-03T09:02:04.119Z,11.26
2023-01-03T09:04:31.997Z,11.51
2023-01-03T09:06:59.498Z,11.68
2023-01-03T09:09:27.040Z,11.85
2023-01-03T09:11:54.271Z,11.81
2023-01-03T09:14:21.728Z,11.86
2023-01-03T09:16:49.614Z,11.95
2023-01-03T09:19:17.546Z,12.09
2023-01-03T09:21:45.009Z,12.14
2023-01-03T09:24:12.586Z,12.27
2023-01-03T09:26:40.080Z,12.45
2023-01-03T09:29:07.581Z,12.56
2023-01-03T09:31:35.384Z,12.73
2023-01-03T09:34:05.383Z,12.85
2023-01-03T09:36:33.301Z,12.94
2023-01-03T09:39:00.864Z,12.88
2023-01-03T09:41:28.827Z,12.76
2023-01-03T09:44:08.217Z,12.54
2023-01-03T09:46:37.140Z,12.32
2023-01-03T09:49:07.210Z,12.10
2023-01-03T09:51:56.611Z,12.10
2023-01-03T09:54:52.225Z,12.10
2023-01-03T09:57:53.138Z,12.15
2023-01-03T10:00:42.093Z,12.08
2023-01-03T10:03:30.967Z,12.12
2023-01-03T10:06:25.604Z,12.10
2023-01-03T10:09:43.780Z,12.18
2023-01-03T10:12:35.871Z,12.37
2023-01-03T10:15:18.385Z,12.58
2023-01-03T10:17:56.345Z,12.73
2023-01-03T10:20:47.002Z,12.95
2023-01-03T10:23:15.213Z,13.09
2023-01-03T10:25:46.457Z,13.00
2023-01-03T10:28:24.429Z,13.10
2023-01-03T10:31:19.071Z,13.25
2023-01-03T10:33:50.558Z,13.15
2023-01-03T10:36:20.068Z,13.28
2023-01-03T10:38:52.808Z,13.41
2023-01-03T10:41:32.081Z,13.32
2023-01-03T10:44:04.183Z,13.36
2023-01-03T10:46:32.263Z,13.43
2023-01-03T10:49:27.406Z,13.54
2023-01-03T10:52:10.396Z,13.69
2023-01-03T10:54:43.928Z,13.64
2023-01-03T10:57:48.251Z,13.69
2023-01-03T11:00:34.857Z,13.76
2023-01-03T11:03:16.395Z,13.64
2023-01-03T11:05:57.667Z,13.41
2023-01-03T11:08:37.845Z,13.36
2023-01-03T11:11:05.440Z,13.48
2023-01-03T11:13:43.314Z,13.40
2023-01-03T11:16:19.623Z,13.36
2023-01-03T11:19:05.311Z,13.23
2023-01-03T11:21:56.587Z,13.21
2023-01-03T11:24:43.815Z,13.19
2023-01-03T11:27:11.443Z,13.27
2023-01-03T11:29:48.011Z,13.22
2023-01-03T11:32:32.656Z,13.21
2023-01-03T11:35:24.054Z,13.11
2023-01-03T11:37:55.523Z,13.17
2023-01-03T11:40:38.440Z,13.20
2023-01-03T11:43:24.386Z,13.03
2023-01-03T11:46:21.365Z,13.06
2023-01-03T11:49:09.938Z,13.05
2023-01-03T11:51:43.337Z,13.02
2023-01-03T11:54:49.322Z,12.96
2023-01-03T11:57:51.235Z,12.85
2023-01-03T12:00:44.298Z,12.81
2023-01-03T12:03:17.521Z,12.87
2023-01-03T12:05:58.422Z,12.81
2023-01-03T12:08:46.225Z,12.81
2023-01-03T12:11:29.056Z,12.73
2023-01-03T12:14:24.780Z,12.74
2023-01-03T12:17:18.240Z,12.68
2023-01-03T12:19:45.973Z,12.67
2023-01-03T12:22:18.634Z,12.68
2023-01-03T12:25:25.128Z,12.64
2023-01-03T12:28:11.232Z,12.67
2023-01-03T12:30:53.194Z,12.60
2023-01-03T12:33:42.928Z,12.57
2023-01-03T12:36:22.466Z,12.53
2023-01-03T12:39:08.538Z,12.61
2023-01-03T12:44:44.727Z,12.55
2023-01-03T12:47:23.937Z,12.60
2023-01-03T12:50:03.134Z,12.53
2023-01-03T12:52:33.993Z,12.56
2023-01-03T12:55:29.253Z,12.44
2023-01-03T12:58:00.206Z,12.48
2023-01-03T13:00:52.940Z,12.51
2023-01-03T13:03:26.723Z,12.46
2023-01-03T13:06:03.102Z,12.53
2023-01-03T13:08:33.638Z,12.51
2023-01-03T13:11:18.456Z,12.44
2023-01-03T13:13:52.714Z,12.48
2023-01-03T13:16:53.371Z,12.62
2023-01-03T13:19:23.655Z,12.66
2023-01-03T13:21:53.921Z,12.64
2023-01-03T13:24:51.425Z,12.64
2023-01-03T13:27:24.897Z,12.75
2023-01-03T13:29:58.842Z,12.80
2023-01-03T13:32:34.634Z,12.74
2023-01-03T13:35:06.463Z,12.77
2023-01-03T13:37:36.849Z,12.70
2023-01-03T13:43:21.573Z,12.75
2023-01-03T13:45:52.875Z,12.68
2023-01-03T13:48:30.479Z,12.71
2023-01-03T13:51:11.699Z,12.74
2023-01-03T13:54:00.758Z,12.77
2023-01-03T13:56:56.435Z,12.81
2023-01-03T13:59:35.616Z,12.75
2023-01-03T14:02:33.369Z,12.77
2023-01-03T14:05:37.528Z,12.69
2023-01-03T14:08:30.406Z,12.78
2023-01-03T14:11:25.709Z,12.67
2023-01-03T14:14:21.202Z,12.66
2023-01-03T14:16:52.946Z,12.74
2023-01-03T14:19:32.482Z,12.75
2023-01-03T14:22:28.208Z,12.77
2023-01-03T14:24:57.782Z,12.87
2023-01-03T14:27:36.132Z,12.80
2023-01-03T14:30:05.097Z,12.72
2023-01-03T14:32:37.655Z,12.67
2023-01-03T14:35:05.656Z,12.72
2023-01-03T14:37:35.109Z,12.75
2023-01-03T14:40:05.667Z,12.79
2023-01-03T14:42:33.215Z,12.65
2023-01-03T14:45:04.493Z,12.64
2023-01-03T14:47:33.862Z,12.63
2023-01-03T14:50:02.492Z,12.61
2023-01-03T14:52:34.434Z,12.51
2023-01-03T14:55:17.103Z,12.62
2023-01-03T14:57:47.144Z,12.61
2023-01-03T15:00:30.168Z,12.58
2023-01-03T15:03:02.586Z,12.63
2023-01-03T15:05:41.354Z,12.57
2023-01-03T15:08:19.418Z,12.52
2023-01-03T15:11:00.415Z,12.54
2023-01-03T15:13:55.651Z,12.55
2023-01-03T15:16:23.231Z,12.48
2023-01-03T15:18:50.858Z,12.53
2023-01-03T15:21:21.871Z,12.50
2023-01-03T15:23:50.361Z,12.50
2023-01-03T15:26:38.016Z,12.53
2023-01-03T15:29:18.232Z,12.58
2023-01-03T15:31:56.702Z,12.49
2023-01-03T15:34:41.956Z,12.38
2023-01-03T15:37:22.019Z,12.32
2023-01-03T15:39:52.493Z,12.27
2023-01-03T15:42:45.200Z,12.30
2023-01-03T15:45:30.118Z,12.20
2023-01-03T15:48:00.769Z,12.27
2023-01-03T15:50:40.265Z,12.22
2023-01-03T15:53:22.950Z,12.23
2023-01-03T15:55:52.727Z,12.27
2023-01-03T15:58:20.350Z,12.22
2023-01-03T16:00:49.005Z,12.24
2023-01-03T16:03:18.764Z,12.25
2023-01-03T16:05:46.385Z,12.20
2023-01-03T16:08:24.053Z,12.15
2023-01-03T16:10:52.331Z,12.15
2023-01-03T16:13:21.109Z,12.16
2023-01-03T16:15:48.802Z,12.15
2023-01-03T16:18:20.789Z,12.19
2023-01-03T16:20:48.533Z,12.33
2023-01-03T16:23:25.764Z,12.20
2023-01-03T16:25:54.191Z,12.22
2023-01-03T16:28:22.283Z,12.23
2023-01-03T16:30:58.481Z,12.12
2023-01-03T16:33:30.130Z,12.20
2023-01-03T16:35:58.321Z,12.18
2023-01-03T16:38:26.941Z,12.10
2023-01-03T16:40:54.899Z,12.10
2023-01-03T16:43:26.616Z,12.13
2023-01-03T16:45:59.164Z,12.09
2023-01-03T16:48:33.849Z,11.97
2023-01-03T16:51:01.633Z,12.06
2023-01-03T16:53:35.941Z,12.04
2023-01-03T16:56:04.727Z,12.06
2023-01-03T16:58:32.173Z,12.01
2023-01-03T17:01:03.757Z,12.07
2023-01-03T17:03:41.235Z,12.11
2023-01-03T17:06:37.403Z,12.10
2023-01-03T17:09:19.247Z,12.10
2023-01-03T17:11:47.541Z,12.09
2023-01-03T17:14:20.918Z,12.04
2023-01-03T17:16:50.128Z,12.05
2023-01-03T17:20:02.840Z,12.00
2023-01-03T17:22:20.763Z,12.00
2023-01-03T17:24:50.266Z,11.93
2023-01-03T17:27:31.955Z,12.09
2023-01-03T17:30:04.711Z,12.08
2023-01-03T17:32:32.609Z,12.14
2023-01-03T17:35:00.156Z,12.06
2023-01-03T17:37:27.656Z,11.98
2023-01-03T17:39:57.042Z,11.96
2023-01-03T17:42:26.811Z,11.95
2023-01-03T17:45:16.354Z,11.86
2023-01-03T17:48:07.082Z,11.86
2023-01-03T17:50:34.675Z,11.91
2023-01-03T17:53:02.517Z,11.85
2023-01-03T17:55:31.220Z,11.91
2023-01-03T17:58:02.101Z,11.90
2023-01-03T18:00:30.514Z,11.90
2023-01-03T18:03:00.408Z,11.90
2023-01-03T18:05:30.022Z,11.92
2023-01-03T18:08:00.279Z,11.90
2023-01-03T18:10:45.681Z,11.95
2023-01-03T18:13:27.052Z,11.86
2023-01-03T18:15:55.393Z,11.86
2023-01-03T18:18:24.808Z,11.87
2023-01-03T18:20:53.386Z,11.86
2023-01-03T18:23:31.607Z,11.80
2023-01-03T18:26:03.737Z,11.79
2023-01-03T18:28:31.913Z,11.81
2023-01-03T18:30:59.538Z,11.80
2023-01-03T18:33:27.269Z,11.72
2023-01-03T18:35:54.678Z,11.68
2023-01-03T18:38:29.571Z,11.68
2023-01-03T18:41:04.301Z,11.68
2023-01-03T18:43:32.711Z,11.66
2023-01-03T18:46:00.317Z,11.64
2023-01-03T18:48:27.931Z,11.65
2023-01-03T18:50:59.302Z,11.66
2023-01-03T18:53:34.139Z,11.49
2023-01-03T18:56:03.054Z,11.58
2023-01-03T18:58:36.698Z,11.57
2023-01-03T19:01:05.971Z,11.61
2023-01-03T19:03:36.096Z,11.64
2023-01-03T19:06:17.007Z,11.58
2023-01-03T19:08:44.923Z,11.68
2023-01-03T19:11:18.545Z,11.63
2023-01-03T19:13:51.825Z,11.61
2023-01-03T19:16:25.467Z,11.61
2023-01-03T19:18:54.341Z,11.62
2023-01-03T19:21:25.681Z,11.60
2023-01-03T19:23:58.949Z,11.69
2023-01-03T19:26:42.396Z,11.66
2023-01-03T19:29:20.585Z,11.55
2023-01-03T19:31:50.122Z,11.60
2023-01-03T19:34:20.234Z,11.62
2023-01-03T19:36:51.175Z,11.64
2023-01-03T19:39:24.762Z,11.65
2023-01-03T19:42:15.052Z,11.70
2023-01-03T19:44:43.204Z,11.66
2023-01-03T19:47:16.063Z,11.74
2023-01-03T19:49:44.995Z,11.79
2023-01-03T19:52:12.523Z,11.80
2023-01-03T19:54:40.579Z,11.84
2023-01-03T19:57:32.246Z,11.80
2023-01-03T20:00:02.017Z,11.78
2023-01-03T20:02:40.958Z,11.84
2023-01-03T20:05:18.122Z,11.75
2023-01-03T20:07:49.404Z,11.78
2023-01-03T20:10:24.175Z,11.79
2023-01-03T20:12:55.156Z,11.80
2023-01-03T20:15:26.404Z,11.84
2023-01-03T20:17:54.758Z,11.87
2023-01-03T20:20:24.271Z,11.80
2023-01-03T20:23:06.415Z,11.81
2023-01-03T20:25:37.143Z,11.76
2023-01-03T20:28:05.972Z,11.71
2023-01-03T20:30:34.595Z,11.75
2023-01-03T20:33:02.091Z,11.77
2023-01-03T20:38:25.817Z,11.81
2023-01-03T20:40:57.125Z,11.83
2023-01-03T20:43:25.216Z,11.83
2023-01-03T20:45:56.433Z,11.87
2023-01-03T20:48:26.227Z,11.86
2023-01-03T20:50:54.283Z,11.82
2023-01-03T20:53:24.813Z,11.81
2023-01-03T20:55:53.266Z,11.88
2023-01-03T20:58:26.429Z,11.88
2023-01-03T21:01:01.981Z,11.93
2023-01-03T21:03:34.055Z,11.94
2023-01-03T21:06:03.239Z,11.95
2023-01-03T21:08:49.392Z,11.99
2023-01-03T21:11:17.198Z,12.05
2023-01-03T21:13:44.688Z,12.06
2023-01-03T21:16:39.610Z,12.06
2023-01-03T21:19:11.732Z,12.09
2023-01-03T21:21:40.432Z,12.12
2023-01-03T21:24:10.003Z,12.16
2023-01-03T21:26:37.757Z,12.17
2023-01-03T21:29:05.470Z,12.15
2023-01-03T21:31:34.424Z,12.23
2023-01-03T21:34:06.935Z,12.27
2023-01-03T21:36:35.930Z,12.26
2023-01-03T21:39:04.491Z,12.27
2023-01-03T21:41:35.302Z,12.30
2023-01-03T21:44:04.368Z,12.28
2023-01-03T21:46:31.943Z,12.27
2023-01-03T21:48:59.680Z,12.33
2023-01-03T21:51:37.919Z,12.26
2023-01-03T21:54:08.150Z,12.36
2023-01-03T21:56:45.352Z,12.39
2023-01-03T21:59:15.669Z,12.40
2023-01-03T22:02:03.644Z,12.41
2023-01-03T22:04:32.195Z,12.41
2023-01-03T22:07:02.864Z,12.37
2023-01-03T22:09:50.447Z,12.36
2023-01-03T22:12:19.435Z,12.43
2023-01-03T22:14:47.200Z,12.39
2023-01-03T22:17:15.479Z,12.44
2023-01-03T22:19:43.339Z,12.44
2023-01-03T22:22:10.837Z,12.39
2023-01-03T22:24:38.418Z,12.44
2023-01-03T22:27:06.348Z,12.40
2023-01-03T22:29:33.826Z,12.33
2023-01-03T22:32:01.464Z,12.33
2023-01-03T22:34:29.068Z,12.44
2023-01-03T22:36:56.625Z,12.40
2023-01-03T22:39:24.226Z,12.35
2023-01-03T22:41:51.767Z,12.49
2023-01-03T22:44:19.250Z,12.48
2023-01-03T22:46:46.731Z,12.49
2023-01-03T22:49:14.366Z,12.52
2023-01-03T22:51:41.926Z,12.51
2023-01-03T22:54:09.299Z,12.54
2023-01-03T22:56:36.782Z,12.53
2023-01-03T22:59:04.176Z,12.55
2023-01-03T23:01:31.846Z,12.57
2023-01-03T23:04:01.144Z,12.61
2023-01-03T23:06:30.649Z,12.65
2023-01-03T23:08:58.291Z,12.63
2023-01-03T23:11:46.882Z,12.65
2023-01-03T23:14:20.085Z,12.61
2023-01-03T23:16:48.399Z,12.65
2023-01-03T23:19:20.825Z,12.66
2023-01-03T23:21:48.288Z,12.68
2023-01-03T23:24:24.108Z,12.63
2023-01-03T23:26:52.787Z,12.54
2023-01-03T23:29:21.297Z,12.49
2023-01-03T23:31:48.933Z,12.53
2023-01-03T23:34:16.388Z,12.57
2023-01-03T23:36:44.280Z,12.63
2023-01-03T23:39:17.295Z,12.60
2023-01-03T23:41:45.818Z,12.64
2023-01-03T23:44:13.609Z,12.64
2023-01-03T23:46:41.446Z,12.60
2023-01-03T23:49:12.370Z,12.68
2023-01-03T23:51:39.893Z,12.63
2023-01-03T23:54:07.410Z,12.64
2023-01-03T23:56:34.876Z,12.66
2023-01-03T23:59:02.267Z,12.67
